Time;durP1;ratioP1;P1;durP2;ratioP2;P2;SDS_P1;SDS_P2;PMS_P1;PMS_P2;Temp;Humidity;BMP_temperature;BMP_pressure;BME280_temperature;BME280_humidity;BME280_pressure;Samples;Min_cycle;Max_cycle;Signal;HPM_P1;HPM_P2
2022/06/25 00:02:22;;;;;;;0.00;0.00;;;;;;;18.31;100.00;99802.81;5071552;28;20170;-75
2022/06/25 00:07:31;;;;;;;0.00;0.00;;;;;;;18.37;100.00;99814.34;5071347;28;20165;-73
2022/06/25 00:09:57;;;;;;;0.00;0.00;;;;;;;18.35;100.00;99817.47;5071502;28;20245;-72
2022/06/25 00:12:31;;;;;;;0.00;0.00;;;;;;;18.42;100.00;99814.81;5053480;28;20178;-73
2022/06/25 00:14:57;;;;;;;0.00;0.00;;;;;;;18.45;100.00;99829.84;5071341;28;20178;-72
2022/06/25 00:17:22;;;;;;;0.00;0.00;;;;;;;18.52;100.00;99832.69;5071026;28;20177;-74
2022/06/25 00:19:48;;;;;;;0.00;0.00;;;;;;;18.38;100.00;99840.84;5070969;28;20741;-72
2022/06/25 00:22:13;;;;;;;0.00;0.00;;;;;;;18.20;100.00;99826.78;5071126;28;20650;-73
2022/06/25 00:24:38;;;;;;;0.00;0.00;;;;;;;18.26;100.00;99846.63;5070461;28;20657;-74
2022/06/25 00:27:04;;;;;;;0.00;0.00;;;;;;;18.39;100.00;99846.00;5070953;28;20170;-73
2022/06/25 00:29:29;;;;;;;0.00;0.00;;;;;;;18.55;100.00;99843.00;5071679;28;20183;-73
2022/06/25 00:31:55;;;;;;;0.00;0.00;;;;;;;18.52;100.00;99848.50;5071014;28;20201;-75
2022/06/25 00:34:20;;;;;;;0.00;0.00;;;;;;;18.59;100.00;99849.34;5071159;28;20186;-73
2022/06/25 00:36:45;;;;;;;0.20;0.20;;;;;;;18.66;100.00;99846.69;5070954;28;20195;-73
2022/06/25 00:39:11;;;;;;;0.00;0.00;;;;;;;18.65;100.00;99845.09;5070690;28;20542;-73
2022/06/25 00:41:36;;;;;;;0.00;0.00;;;;;;;18.61;100.00;99849.78;5070942;28;20251;-72
2022/06/25 00:44:09;;;;;;;0.00;0.00;;;;;;;18.51;100.00;99849.66;5052982;28;20174;-73
2022/06/25 00:46:35;;;;;;;0.00;0.00;;;;;;;18.43;100.00;99849.59;5070662;28;20540;-72
2022/06/25 00:49:01;;;;;;;0.20;0.20;;;;;;;18.35;100.00;99855.41;5070729;28;20161;-73
2022/06/25 00:51:31;;;;;;;0.57;0.57;;;;;;;18.26;100.00;99844.66;5071085;28;20275;-72
2022/06/25 00:53:59;;;;;;;0.27;0.27;;;;;;;18.20;100.00;99839.81;5070858;28;20174;-73
2022/06/25 00:56:27;;;;;;;0.00;0.00;;;;;;;18.15;100.00;99838.22;5070768;28;20170;-74
2022/06/25 00:58:58;;;;;;;0.13;0.13;;;;;;;18.05;100.00;99830.56;5069092;28;20546;-72
2022/06/25 01:01:24;;;;;;;0.00;0.00;;;;;;;18.00;100.00;99837.25;5064131;28;20189;-75
2022/06/25 01:03:49;;;;;;;0.00;0.00;;;;;;;17.86;100.00;99837.06;5069772;28;20273;-73
2022/06/25 01:06:15;;;;;;;4.10;0.67;;;;;;;17.77;100.00;99842.84;5070620;28;20689;-73
2022/06/25 01:08:40;;;;;;;1.53;1.23;;;;;;;17.73;100.00;99836.50;5070229;28;20193;-74
2022/06/25 01:11:07;;;;;;;0.57;0.57;;;;;;;17.70;100.00;99834.47;5070993;28;20254;-73
2022/06/25 01:13:33;;;;;;;0.23;0.23;;;;;;;17.72;100.00;99834.91;5071156;28;20639;-72
2022/06/25 01:15:59;;;;;;;0.10;0.10;;;;;;;17.64;100.00;99849.75;5070916;28;20198;-74
2022/06/25 01:18:24;;;;;;;0.27;0.27;;;;;;;17.60;100.00;99840.63;5070351;28;20180;-74
2022/06/25 01:20:50;;;;;;;0.00;0.00;;;;;;;17.61;100.00;99844.97;5070767;28;20572;-74
2022/06/25 01:23:15;;;;;;;0.47;0.47;;;;;;;17.63;100.00;99842.63;5070595;28;20638;-73
2022/06/25 01:25:41;;;;;;;0.30;0.30;;;;;;;17.63;100.00;99861.97;5070341;28;20198;-74
2022/06/25 01:28:08;;;;;;;0.00;0.00;;;;;;;17.57;100.00;99857.16;5070290;28;20528;-72
2022/06/25 01:30:34;;;;;;;0.00;0.00;;;;;;;17.59;100.00;99852.84;5071991;28;20171;-73
2022/06/25 01:32:59;;;;;;;0.00;0.00;;;;;;;17.70;100.00;99858.56;5073053;28;20584;-73
2022/06/25 01:35:24;;;;;;;0.00;0.00;;;;;;;17.55;100.00;99865.81;5072051;28;20174;-73
2022/06/25 01:37:50;;;;;;;0.00;0.00;;;;;;;17.52;100.00;99875.66;5074306;28;20201;-72
2022/06/25 01:40:16;;;;;;;0.00;0.00;;;;;;;17.61;100.00;99874.56;5074491;28;20174;-72
2022/06/25 01:42:59;;;;;;;0.00;0.00;;;;;;;17.78;100.00;99882.34;5074298;28;20684;-72
2022/06/25 01:45:36;;;;;;;0.00;0.00;;;;;;;17.77;100.00;99875.22;5074244;28;20606;-72
2022/06/25 01:48:03;;;;;;;0.00;0.00;;;;;;;17.78;100.00;99885.09;5073806;28;20676;-72
2022/06/25 01:50:29;;;;;;;0.00;0.00;;;;;;;17.76;100.00;99877.19;5074295;28;20170;-72
2022/06/25 01:52:55;;;;;;;0.23;0.23;;;;;;;17.72;100.00;99886.59;5074183;28;20170;-73
2022/06/25 01:55:21;;;;;;;0.00;0.00;;;;;;;17.72;100.00;99892.94;5073939;28;20220;-73
2022/06/25 01:57:47;;;;;;;0.00;0.00;;;;;;;17.74;100.00;99889.78;5073634;28;20181;-72
2022/06/25 02:00:21;;;;;;;0.10;0.10;;;;;;;17.64;100.00;99896.72;5074020;28;20178;-73
2022/06/25 02:02:47;;;;;;;0.33;0.33;;;;;;;17.56;100.00;99900.56;5073719;28;20163;-72
2022/06/25 02:05:15;;;;;;;0.50;0.50;;;;;;;17.64;100.00;99902.22;5072851;28;20194;-73
2022/06/25 02:07:41;;;;;;;0.67;0.67;;;;;;;17.75;100.00;99897.69;5073571;28;20662;-72
2022/06/25 02:10:07;;;;;;;0.67;0.67;;;;;;;17.85;100.00;99890.75;5073915;28;20174;-72
2022/06/25 02:12:32;;;;;;;0.10;0.10;;;;;;;17.86;100.00;99883.25;5073814;28;20650;-72
2022/06/25 02:14:58;;;;;;;0.83;0.83;;;;;;;17.84;100.00;99889.16;5073540;28;20170;-72
2022/06/25 02:17:23;;;;;;;1.20;1.00;;;;;;;17.86;100.00;99892.34;5073608;28;20538;-72
2022/06/25 02:19:49;;;;;;;0.70;0.70;;;;;;;17.93;100.00;99897.16;5073415;28;20163;-72
2022/06/25 02:22:14;;;;;;;1.53;1.43;;;;;;;17.93;100.00;99894.38;5073701;28;20178;-72
2022/06/25 02:24:44;;;;;;;0.50;0.50;;;;;;;17.97;100.00;99896.03;5073377;28;20347;-72
2022/06/25 02:27:10;;;;;;;0.87;0.87;;;;;;;18.04;100.00;99892.56;5073228;28;20232;-72
2022/06/25 02:29:35;;;;;;;1.17;1.07;;;;;;;18.11;100.00;99898.19;5073269;28;20655;-72
2022/06/25 02:32:01;;;;;;;1.33;1.23;;;;;;;18.15;100.00;99904.56;5073357;28;20202;-72
2022/06/25 02:34:26;;;;;;;2.43;2.27;;;;;;;18.17;100.00;99902.22;5073207;28;20171;-72
2022/06/25 02:36:52;;;;;;;1.53;1.43;;;;;;;18.22;100.00;99898.31;5073158;28;20185;-73
2022/06/25 02:39:18;;;;;;;5.50;1.47;;;;;;;18.24;100.00;99910.63;5072849;28;20170;-72
2022/06/25 02:41:43;;;;;;;0.97;0.97;;;;;;;18.20;100.00;99909.75;5072643;28;21176;-75
2022/06/25 02:44:09;;;;;;;0.90;0.90;;;;;;;18.22;100.00;99910.16;5070119;28;20627;-72
2022/06/25 02:46:34;;;;;;;1.63;1.47;;;;;;;18.22;100.00;99901.88;5072467;28;20186;-72
2022/06/25 02:49:00;;;;;;;1.57;1.53;;;;;;;18.22;100.00;99910.16;5072248;28;20170;-72
2022/06/25 02:51:25;;;;;;;2.37;2.27;;;;;;;18.23;100.00;99911.78;5072860;28;20210;-73
2022/06/25 02:53:50;;;;;;;0.53;0.53;;;;;;;18.23;100.00;99917.31;5072962;28;20280;-72
2022/06/25 02:59:02;;;;;;;0.80;0.80;;;;;;;18.17;100.00;99912.47;5072660;28;20189;-73
2022/06/25 03:01:29;;;;;;;1.33;1.23;;;;;;;18.19;100.00;99916.47;5072623;28;20631;-72
2022/06/25 03:03:55;;;;;;;2.00;1.90;;;;;;;18.21;100.00;99916.06;5071853;28;20171;-73
2022/06/25 03:06:21;;;;;;;1.30;1.30;;;;;;;18.23;100.00;99935.88;5072584;28;20262;-72
2022/06/25 03:08:47;;;;;;;1.63;1.13;;;;;;;18.21;100.00;99925.16;5072131;28;20179;-72
2022/06/25 03:11:13;;;;;;;0.97;0.97;;;;;;;18.23;100.00;99920.09;5072522;28;20573;-72
2022/06/25 03:13:38;;;;;;;0.13;0.13;;;;;;;18.24;100.00;99927.22;5072435;28;20178;-72
2022/06/25 03:16:05;;;;;;;0.90;0.90;;;;;;;18.21;100.00;99919.63;5072595;28;20221;-72
2022/06/25 03:18:31;;;;;;;1.20;1.20;;;;;;;18.21;100.00;99925.16;5072041;28;20220;-72
2022/06/25 03:20:57;;;;;;;2.47;1.30;;;;;;;18.25;100.00;99926.03;5072301;28;20815;-72
2022/06/25 03:23:25;;;;;;;1.23;1.13;;;;;;;18.32;100.00;99917.81;5072620;28;20179;-72
2022/06/25 03:25:50;;;;;;;1.23;1.20;;;;;;;18.31;100.00;99916.22;5072506;28;20271;-72
2022/06/25 03:28:15;;;;;;;0.47;0.47;;;;;;;18.34;100.00;99926.53;5071826;28;20537;-72
2022/06/25 03:30:41;;;;;;;0.40;0.40;;;;;;;18.36;100.00;99920.63;5072331;28;20166;-72
2022/06/25 03:33:06;;;;;;;1.53;1.37;;;;;;;18.34;100.00;99929.28;5072243;28;20170;-72
2022/06/25 03:35:32;;;;;;;0.50;0.50;;;;;;;18.36;100.00;99926.16;5072153;28;20241;-73
2022/06/25 03:37:57;;;;;;;1.07;1.07;;;;;;;18.38;99.96;99926.59;5071838;28;20191;-72
2022/06/25 03:40:22;;;;;;;1.37;1.27;;;;;;;18.46;98.89;99938.53;5071831;28;20677;-73
2022/06/25 03:42:48;;;;;;;1.67;1.57;;;;;;;18.48;98.61;99927.88;5053817;28;20178;-75
2022/06/25 03:45:13;;;;;;;3.23;1.10;;;;;;;18.47;98.94;99937.34;5071791;28;20553;-72
2022/06/25 03:47:39;;;;;;;0.40;0.40;;;;;;;18.47;99.84;99934.59;5071343;28;20236;-73
2022/06/25 03:50:04;;;;;;;0.83;0.83;;;;;;;18.47;100.00;99931.81;5071693;28;20558;-72
2022/06/25 03:52:30;;;;;;;0.23;0.23;;;;;;;18.47;100.00;99937.34;5071690;28;20182;-72
2022/06/25 03:54:55;;;;;;;0.00;0.00;;;;;;;18.47;100.00;99940.91;5071749;28;20170;-72
2022/06/25 03:57:20;;;;;;;0.13;0.13;;;;;;;18.47;100.00;99940.13;5071434;28;20171;-72
2022/06/25 03:59:46;;;;;;;0.67;0.67;;;;;;;18.43;100.00;99946.41;5071331;28;20619;-76
2022/06/25 04:02:11;;;;;;;0.00;0.00;;;;;;;18.44;100.00;99948.00;5053602;28;20167;-73
2022/06/25 04:04:37;;;;;;;0.10;0.10;;;;;;;18.46;100.00;99949.59;5070514;28;20198;-72
2022/06/25 04:07:02;;;;;;;0.00;0.00;;;;;;;18.45;100.00;99957.09;5071359;28;20228;-72
2022/06/25 04:09:27;;;;;;;0.40;0.40;;;;;;;18.46;100.00;99958.69;5053270;28;20573;-72
2022/06/25 04:11:53;;;;;;;0.00;0.00;;;;;;;18.48;100.00;99964.63;5071748;28;20167;-73
2022/06/25 04:14:18;;;;;;;0.00;0.00;;;;;;;18.46;100.00;99955.13;5071381;28;20175;-75
2022/06/25 04:16:43;;;;;;;0.10;0.10;;;;;;;18.41;100.00;99961.78;5071478;28;20190;-72
2022/06/25 04:19:09;;;;;;;0.00;0.00;;;;;;;18.38;100.00;99970.84;5071027;28;20555;-72
2022/06/25 04:21:34;;;;;;;0.40;0.40;;;;;;;18.36;100.00;99970.41;5071275;28;20626;-73
2022/06/25 04:24:00;;;;;;;2.53;2.37;;;;;;;18.32;100.00;99975.09;5071414;28;20174;-72
2022/06/25 04:26:25;;;;;;;0.93;0.93;;;;;;;18.24;100.00;99978.94;5070968;28;20198;-72
2022/06/25 04:29:06;;;;;;;0.60;0.60;;;;;;;18.07;100.00;99983.84;5070585;28;20227;-73
2022/06/25 04:31:36;;;;;;;0.73;0.73;;;;;;;17.98;100.00;99983.31;5071042;28;20206;-74
2022/06/25 04:34:03;;;;;;;0.63;0.63;;;;;;;17.93;100.00;99980.06;5071056;28;20179;-73
2022/06/25 04:36:29;;;;;;;0.00;0.00;;;;;;;17.94;100.00;99982.50;5070866;28;20186;-73
2022/06/25 04:38:55;;;;;;;0.00;0.00;;;;;;;17.98;100.00;99988.06;5070685;28;20178;-73
2022/06/25 04:41:20;;;;;;;6.70;1.60;;;;;;;17.99;100.00;99986.88;5071282;28;20181;-73
2022/06/25 04:43:46;;;;;;;0.20;0.20;;;;;;;17.99;100.00;99986.88;5071038;28;20170;-74
2022/06/25 04:46:11;;;;;;;0.10;0.10;;;;;;;18.02;100.00;99988.91;5071207;28;20234;-73
2022/06/25 04:48:36;;;;;;;1.57;1.47;;;;;;;18.04;100.00;100001.19;5070445;28;20701;-73
2022/06/25 04:51:02;;;;;;;1.10;1.10;;;;;;;18.04;100.00;99992.88;5070795;28;20427;-73
2022/06/25 04:53:27;;;;;;;4.97;2.27;;;;;;;18.09;100.00;100000.88;5070865;28;20185;-73
2022/06/25 04:55:53;;;;;;;3.20;1.27;;;;;;;18.13;100.00;99996.19;5070832;28;20181;-72
2022/06/25 04:58:18;;;;;;;2.67;1.93;;;;;;;18.18;100.00;100008.88;5070399;28;20171;-73
2022/06/25 05:00:43;;;;;;;1.20;1.10;;;;;;;18.21;100.00;100008.13;5070717;28;20177;-72
2022/06/25 05:03:09;;;;;;;0.67;0.67;;;;;;;18.24;100.00;100006.59;5069992;28;20177;-72
2022/06/25 05:05:35;;;;;;;1.87;1.77;;;;;;;18.23;100.00;100014.09;5070774;28;20281;-74
2022/06/25 05:08:00;;;;;;;0.37;0.37;;;;;;;18.23;100.00;100016.06;5070258;28;20172;-73
2022/06/25 05:10:26;;;;;;;1.50;1.40;;;;;;;18.31;100.00;100024.09;5072655;28;20209;-72
2022/06/25 05:15:36;;;;;;;1.20;1.20;;;;;;;18.51;100.00;100033.03;5077595;28;20169;-73
2022/06/25 05:18:01;;;;;;;0.47;0.47;;;;;;;18.64;100.00;100039.16;5076877;28;20183;-72
2022/06/25 05:20:27;;;;;;;0.30;0.30;;;;;;;18.80;100.00;100039.78;5077212;28;20257;-72
2022/06/25 05:22:52;;;;;;;0.10;0.10;;;;;;;18.98;100.00;100037.22;5077386;28;20235;-73
2022/06/25 05:25:18;;;;;;;0.73;0.73;;;;;;;19.09;100.00;100045.63;5076998;28;20200;-73
2022/06/25 05:27:43;;;;;;;1.53;1.07;;;;;;;19.20;100.00;100032.72;5076819;28;20263;-72
2022/06/25 05:30:09;;;;;;;1.57;1.47;;;;;;;19.26;100.00;100039.53;5074077;28;20538;-73
2022/06/25 05:32:35;;;;;;;1.07;0.97;;;;;;;19.31;100.00;100036.41;5075889;28;20185;-72
2022/06/25 05:35:00;;;;;;;0.67;0.67;;;;;;;19.33;100.00;100040.38;5080116;28;20713;-72
2022/06/25 05:37:26;;;;;;;1.60;1.50;;;;;;;19.37;98.17;100048.72;5092794;28;20174;-72
2022/06/25 05:39:51;;;;;;;0.93;0.77;;;;;;;19.48;97.86;100044.09;5077199;28;20228;-72
2022/06/25 05:42:17;;;;;;;1.23;1.23;;;;;;;19.57;97.81;100055.69;5077025;28;20202;-72
2022/06/25 05:44:43;;;;;;;1.00;1.00;;;;;;;19.61;96.64;100042.66;5077224;28;20233;-73
2022/06/25 05:47:09;;;;;;;0.63;0.63;;;;;;;19.65;96.12;100044.66;5058990;28;20195;-73
2022/06/25 05:49:34;;;;;;;1.13;1.03;;;;;;;19.60;94.84;100046.63;5077172;28;20174;-74
2022/06/25 05:52:00;;;;;;;0.50;0.50;;;;;;;19.63;95.33;100045.03;5077240;28;20188;-72
2022/06/25 05:54:25;;;;;;;0.70;0.70;;;;;;;19.63;94.81;100044.25;5076935;28;20528;-72
2022/06/25 05:56:50;;;;;;;1.57;1.47;;;;;;;19.59;94.62;100050.56;5076690;28;20236;-72
2022/06/25 05:59:17;;;;;;;1.23;1.13;;;;;;;19.57;94.68;100049.34;5076932;28;20229;-73
2022/06/25 06:01:42;;;;;;;0.70;0.70;;;;;;;19.54;94.11;100050.91;5076876;28;20175;-73
2022/06/25 06:04:08;;;;;;;1.27;1.27;;;;;;;19.50;93.75;100057.56;5075845;28;20198;-74
2022/06/25 06:06:33;;;;;;;4.97;1.50;;;;;;;19.51;93.56;100050.84;5076518;28;20202;-72
2022/06/25 06:08:59;;;;;;;1.07;1.07;;;;;;;19.54;93.28;100056.47;5076469;28;20175;-73
2022/06/25 06:11:24;;;;;;;2.73;1.90;;;;;;;19.64;93.14;100060.50;5076713;28;20175;-73
2022/06/25 06:13:49;;;;;;;0.40;0.40;;;;;;;19.73;92.44;100071.28;5076807;28;20171;-72
2022/06/25 06:16:15;;;;;;;1.60;1.50;;;;;;;19.69;90.33;100064.91;5076969;28;20257;-73
2022/06/25 06:18:40;;;;;;;5.60;1.53;;;;;;;19.78;91.20;100065.38;5076739;28;20173;-73
2022/06/25 06:21:05;;;;;;;1.00;1.00;;;;;;;19.77;90.18;100075.66;5077148;28;20257;-74
2022/06/25 06:23:31;;;;;;;0.30;0.30;;;;;;;19.72;90.35;100073.25;5072357;28;20567;-73
2022/06/25 06:25:56;;;;;;;1.70;1.60;;;;;;;19.70;90.71;100066.50;5073283;28;20209;-73
2022/06/25 06:28:21;;;;;;;0.87;0.87;;;;;;;19.67;91.40;100072.78;5072947;28;20179;-73
2022/06/25 06:30:46;;;;;;;1.20;1.20;;;;;;;19.60;90.59;100071.56;5073412;28;20258;-72
2022/06/25 06:33:12;;;;;;;0.67;0.67;;;;;;;19.59;91.25;100067.19;5073630;28;20167;-73
2022/06/25 06:35:37;;;;;;;0.73;0.73;;;;;;;19.71;90.58;100076.41;5073526;28;20174;-73
2022/06/25 06:38:03;;;;;;;1.70;1.33;;;;;;;19.81;89.36;100084.00;5072862;28;20166;-73
2022/06/25 06:40:28;;;;;;;1.20;1.20;;;;;;;19.80;89.67;100082.41;5073138;28;20634;-74
2022/06/25 06:42:55;;;;;;;0.70;0.50;;;;;;;19.90;89.87;100088.06;5073075;28;20251;-73
2022/06/25 06:45:21;;;;;;;1.37;1.27;;;;;;;20.04;89.17;100089.38;5073020;28;20194;-73
2022/06/25 06:47:46;;;;;;;1.40;1.27;;;;;;;20.19;88.71;100079.97;5072735;28;20245;-73
2022/06/25 06:50:12;;;;;;;1.60;1.50;;;;;;;20.18;88.36;100100.56;5072632;28;20270;-76
2022/06/25 06:52:38;;;;;;;1.10;1.00;;;;;;;20.04;88.93;100092.13;5072933;28;20187;-76
2022/06/25 06:55:04;;;;;;;1.77;1.60;;;;;;;19.99;88.96;100092.50;5072977;28;20511;-78
2022/06/25 06:57:31;;;;;;;0.20;0.20;;;;;;;19.91;87.95;100088.84;5072665;28;20244;-74
2022/06/25 06:59:58;;;;;;;0.00;0.00;;;;;;;19.92;87.96;100084.91;5072667;28;20304;-72
2022/06/25 07:02:25;;;;;;;0.27;0.27;;;;;;;19.99;88.09;100089.72;5072432;28;20181;-76
2022/06/25 07:04:52;;;;;;;0.20;0.20;;;;;;;20.06;86.55;100087.00;5071622;28;20227;-77
2022/06/25 07:07:17;;;;;;;0.47;0.43;;;;;;;20.12;86.77;100085.47;5072080;28;20182;-74
2022/06/25 07:09:42;;;;;;;0.10;0.10;;;;;;;20.30;86.26;100086.41;5072095;28;20274;-73
2022/06/25 07:12:08;;;;;;;0.60;0.60;;;;;;;20.53;85.81;100086.16;5072294;28;20665;-76
2022/06/25 07:14:33;;;;;;;0.20;0.20;;;;;;;20.70;84.64;100088.25;5054586;28;20627;-75
2022/06/25 07:16:59;;;;;;;1.57;1.47;;;;;;;20.77;82.53;100090.28;5072090;28;20175;-78
2022/06/25 07:19:24;;;;;;;0.40;0.40;;;;;;;20.78;82.68;100083.53;5071877;28;20185;-72
2022/06/25 07:21:49;;;;;;;0.07;0.07;;;;;;;20.80;82.48;100086.72;5072429;28;20274;-75
2022/06/25 07:24:15;;;;;;;19.17;1.17;;;;;;;20.96;82.71;100091.94;5072052;28;20183;-73
2022/06/25 07:26:41;;;;;;;0.07;0.07;;;;;;;21.02;81.99;100090.38;5071752;28;20568;-73
2022/06/25 07:29:06;;;;;;;0.20;0.20;;;;;;;21.18;81.96;100092.81;5071744;28;20247;-74
2022/06/25 07:31:31;;;;;;;0.00;0.00;;;;;;;21.34;81.51;100098.88;5072089;28;20178;-81
2022/06/25 07:33:57;;;;;;;0.20;0.20;;;;;;;21.46;78.67;100090.16;5071452;28;20372;-73
2022/06/25 07:36:22;;;;;;;0.40;0.40;;;;;;;21.48;76.60;100095.31;5071851;28;20526;-75
2022/06/25 07:38:47;;;;;;;0.00;0.00;;;;;;;21.58;77.70;100102.91;5071405;28;20175;-74
2022/06/25 07:41:13;;;;;;;0.00;0.00;;;;;;;21.58;77.04;100100.13;5072047;28;20202;-74
2022/06/25 07:43:38;;;;;;;0.17;0.17;;;;;;;21.53;77.95;100104.06;5072037;28;20516;-75
2022/06/25 07:46:04;;;;;;;0.20;0.20;;;;;;;21.40;77.66;100102.84;5072158;28;20203;-77
2022/06/25 07:48:30;;;;;;;1.30;1.20;;;;;;;21.43;79.53;100096.50;5071418;28;20203;-73
2022/06/25 07:53:40;;;;;;;0.23;0.23;;;;;;;21.50;79.30;100090.97;5071800;28;20201;-73
2022/06/25 07:56:06;;;;;;;0.10;0.10;;;;;;;21.63;77.78;100100.53;5071791;28;20247;-73
2022/06/25 07:58:31;;;;;;;0.90;0.77;;;;;;;21.87;76.91;100098.97;5064546;28;20189;-73
2022/06/25 08:00:57;;;;;;;0.00;0.00;;;;;;;21.90;75.64;100095.38;5071506;28;20183;-73
2022/06/25 08:03:22;;;;;;;1.23;0.67;;;;;;;22.09;76.20;100099.78;5070866;28;20264;-73
2022/06/25 08:05:47;;;;;;;0.50;0.50;;;;;;;22.18;73.89;100113.31;5071655;28;20212;-73
2022/06/25 08:08:13;;;;;;;8.13;1.23;;;;;;;22.28;74.79;100112.53;5074142;28;20172;-73
2022/06/25 08:10:40;;;;;;;0.50;0.50;;;;;;;22.34;72.46;100110.91;5072307;28;20180;-73
2022/06/25 08:13:06;;;;;;;0.10;0.10;;;;;;;22.36;72.29;100114.09;5071495;28;20183;-73
2022/06/25 08:15:31;;;;;;;0.53;0.53;;;;;;;22.37;72.39;100109.31;5071060;28;20642;-73
2022/06/25 08:17:56;;;;;;;0.00;0.00;;;;;;;22.46;72.58;100109.72;5070836;28;20251;-73
2022/06/25 08:20:22;;;;;;;0.03;0.03;;;;;;;22.59;72.61;100115.66;5071202;28;20175;-73
2022/06/25 08:22:48;;;;;;;0.20;0.20;;;;;;;22.83;73.28;100109.25;5071264;28;20167;-73
2022/06/25 08:25:14;;;;;;;0.30;0.30;;;;;;;23.06;70.63;100125.50;5071094;28;20561;-73
2022/06/25 08:27:50;;;;;;;0.90;0.90;;;;;;;23.05;70.57;100121.13;5070757;28;20227;-73
2022/06/25 08:30:19;;;;;;;0.00;0.00;;;;;;;23.04;70.42;100120.31;5070888;28;20180;-73
2022/06/25 08:32:45;;;;;;;3.07;0.43;;;;;;;23.02;70.46;100119.94;5071021;28;20188;-73
2022/06/25 08:35:11;;;;;;;0.03;0.03;;;;;;;23.07;70.18;100119.50;5070608;28;20178;-73
2022/06/25 08:37:38;;;;;;;0.00;0.00;;;;;;;23.21;70.40;100120.66;5069911;28;20257;-73
2022/06/25 08:40:06;;;;;;;0.03;0.03;;;;;;;23.24;69.58;100120.63;5070312;28;20206;-73
2022/06/25 08:42:32;;;;;;;0.00;0.00;;;;;;;23.17;69.29;100114.31;5052491;28;20175;-73
2022/06/25 08:44:57;;;;;;;0.30;0.30;;;;;;;23.26;67.51;100123.00;5069649;28;20206;-73
2022/06/25 08:47:23;;;;;;;0.17;0.17;;;;;;;23.35;64.13;100117.78;5070393;28;20581;-72
2022/06/25 08:49:48;;;;;;;0.00;0.00;;;;;;;23.34;63.73;100117.00;5070064;28;20269;-73
2022/06/25 08:52:15;;;;;;;0.97;0.70;;;;;;;23.36;64.98;100111.81;5070366;28;20645;-73
2022/06/25 08:54:42;;;;;;;0.00;0.00;;;;;;;23.42;63.91;100117.75;5070415;28;20224;-73
2022/06/25 08:57:08;;;;;;;0.00;0.00;;;;;;;23.64;64.55;100122.03;5070216;28;20174;-73
2022/06/25 08:59:34;;;;;;;0.00;0.00;;;;;;;23.61;61.50;100122.88;5070389;28;20568;-73
2022/06/25 09:01:59;;;;;;;0.20;0.20;;;;;;;23.65;60.94;100120.84;5070375;28;20174;-73
2022/06/25 09:04:25;;;;;;;3.40;3.10;;;;;;;23.71;61.21;100126.78;5069351;28;20630;-73
2022/06/25 09:06:51;;;;;;;0.93;0.50;;;;;;;23.72;61.49;100120.81;5069949;28;20228;-73
2022/06/25 09:09:16;;;;;;;0.07;0.07;;;;;;;23.75;60.55;100124.78;5069772;28;20162;-73
2022/06/25 09:11:51;;;;;;;0.20;0.20;;;;;;;23.83;62.04;100114.34;5067527;28;20592;-74
2022/06/25 09:14:25;;;;;;;0.20;0.20;;;;;;;23.89;61.75;100116.31;5070413;28;20268;-73
2022/06/25 09:17:06;;;;;;;0.10;0.10;;;;;;;23.93;61.90;100119.06;5079954;28;20281;-73
2022/06/25 09:19:34;;;;;;;0.13;0.13;;;;;;;24.09;60.90;100118.53;5050235;28;20174;-73
2022/06/25 09:22:00;;;;;;;0.67;0.67;;;;;;;24.11;60.03;100116.91;5050189;28;20180;-73
2022/06/25 09:24:50;;;;;;;0.00;0.00;;;;;;;24.00;58.34;100114.19;5050525;28;20182;-73
2022/06/25 09:27:35;;;;;;;0.00;0.00;;;;;;;23.92;59.86;100112.69;5050228;28;20654;-73
2022/06/25 09:30:16;;;;;;;0.00;0.00;;;;;;;24.20;59.65;100106.06;5050093;28;20641;-73
2022/06/25 09:32:46;;;;;;;0.00;0.00;;;;;;;24.12;58.89;100100.94;5050429;28;20214;-73
2022/06/25 09:35:13;;;;;;;0.00;0.00;;;;;;;24.23;59.53;100101.66;5050164;28;20209;-73
2022/06/25 09:37:40;;;;;;;0.27;0.27;;;;;;;24.50;60.46;100107.44;5049798;28;20171;-74
2022/06/25 09:40:07;;;;;;;0.60;0.57;;;;;;;24.58;58.95;100117.31;5050230;28;20175;-73
2022/06/25 09:42:34;;;;;;;0.10;0.10;;;;;;;24.41;59.37;100104.31;5050151;28;20178;-73
2022/06/25 09:45:06;;;;;;;0.00;0.00;;;;;;;24.50;59.67;100102.63;5050030;28;20206;-74
2022/06/25 09:47:40;;;;;;;0.67;0.47;;;;;;;24.55;60.22;100101.38;5049801;28;20240;-73
2022/06/25 09:50:11;;;;;;;0.47;0.47;;;;;;;24.60;60.08;100103.75;5050071;28;20266;-72
2022/06/25 09:52:48;;;;;;;0.57;0.47;;;;;;;24.53;60.17;100106.59;5050372;28;20251;-73
2022/06/25 09:55:14;;;;;;;0.13;0.13;;;;;;;24.53;59.29;100107.38;5049973;28;20175;-73
2022/06/25 09:57:39;;;;;;;0.00;0.00;;;;;;;24.71;58.89;100112.78;5052127;28;20175;-74
2022/06/25 10:00:06;;;;;;;0.00;0.00;;;;;;;24.70;58.80;100110.41;5053715;28;20167;-73
2022/06/25 10:02:32;;;;;;;1.40;1.10;;;;;;;24.88;60.33;100100.63;5053827;28;20274;-73
2022/06/25 10:05:01;;;;;;;0.00;0.00;;;;;;;24.65;58.55;100108.88;5053210;28;20722;-73
2022/06/25 10:10:17;;;;;;;0.00;0.00;;;;;;;24.81;58.07;100095.09;5071963;28;20264;-73
2022/06/25 10:12:43;;;;;;;0.00;0.00;;;;;;;25.04;58.21;100083.28;5073408;28;20183;-73
2022/06/25 10:15:09;;;;;;;0.40;0.40;;;;;;;25.45;58.12;100097.09;5082254;28;20175;-73
2022/06/25 10:17:34;;;;;;;0.10;0.10;;;;;;;25.50;56.82;100107.03;5073269;28;20688;-73
2022/06/25 10:20:02;;;;;;;0.00;0.00;;;;;;;25.47;56.66;100096.69;5073363;28;20174;-74
2022/06/25 10:22:28;;;;;;;0.00;0.00;;;;;;;25.55;57.37;100088.97;5073517;28;20657;-73
2022/06/25 10:24:57;;;;;;;5.20;0.70;;;;;;;25.60;55.28;100089.28;5073403;28;20696;-74
2022/06/25 10:27:22;;;;;;;2.80;1.40;;;;;;;25.71;55.44;100091.97;5073135;28;20194;-73
2022/06/25 10:29:57;;;;;;;0.47;0.47;;;;;;;25.62;54.88;100091.69;5073169;28;20213;-73
2022/06/25 10:32:23;;;;;;;0.00;0.00;;;;;;;25.62;55.48;100083.28;5073148;28;20182;-73
2022/06/25 10:35:07;;;;;;;0.00;0.00;;;;;;;25.70;54.41;100088.38;5073220;28;20181;-73
2022/06/25 10:37:58;;;;;;;0.00;0.00;;;;;;;25.88;54.60;100079.69;5073029;28;20261;-73
2022/06/25 10:40:23;;;;;;;0.00;0.00;;;;;;;26.00;52.42;100081.09;5073345;28;20184;-73
2022/06/25 10:43:00;;;;;;;5.87;4.90;;;;;;;25.23;52.44;100073.44;5073049;28;20185;-73
2022/06/25 10:45:26;;;;;;;0.00;0.00;;;;;;;25.61;53.70;100076.91;5073076;28;20206;-73
2022/06/25 10:47:59;;;;;;;0.00;0.00;;;;;;;25.96;55.03;100078.38;5072644;28;20182;-73
2022/06/25 10:50:25;;;;;;;0.20;0.20;;;;;;;25.99;53.09;100079.53;5073003;28;20171;-73
2022/06/25 10:53:08;;;;;;;0.00;0.00;;;;;;;25.97;54.17;100073.56;5073061;28;20181;-73
2022/06/25 10:55:48;;;;;;;0.27;0.27;;;;;;;25.84;53.55;100073.38;5073003;28;20162;-72
2022/06/25 10:58:24;;;;;;;0.10;0.10;;;;;;;25.79;55.11;100073.84;5054732;28;20167;-73
2022/06/25 11:01:02;;;;;;;0.00;0.00;;;;;;;26.12;53.86;100065.72;5073019;28;20166;-74
2022/06/25 11:03:27;;;;;;;0.00;0.00;;;;;;;25.62;51.73;100069.31;5071851;28;20174;-73
2022/06/25 11:05:55;;;;;;;0.10;0.10;;;;;;;25.86;53.35;100076.53;5072875;28;20221;-73
2022/06/25 11:08:23;;;;;;;10.20;9.43;;;;;;;25.97;52.48;100073.56;5071641;28;20167;-73
2022/06/25 11:10:49;;;;;;;0.13;0.13;;;;;;;26.05;53.02;100075.03;5072662;28;20178;-73
2022/06/25 11:13:14;;;;;;;0.00;0.00;;;;;;;26.08;52.01;100074.97;5072612;28;20526;-73
2022/06/25 11:15:44;;;;;;;0.07;0.07;;;;;;;26.05;51.16;100075.81;5072458;28;20205;-74
2022/06/25 11:18:10;;;;;;;0.00;0.00;;;;;;;26.29;51.54;100064.59;5072303;28;20265;-74
2022/06/25 11:20:36;;;;;;;0.00;0.00;;;;;;;26.26;51.92;100062.66;5072377;28;20241;-73
2022/06/25 11:23:02;;;;;;;0.30;0.30;;;;;;;26.53;52.74;100074.59;5072396;28;20209;-73
2022/06/25 11:28:49;;;;;;;0.00;0.00;;;;;;;26.34;52.88;100058.53;5072060;28;20296;-73
2022/06/25 11:31:19;;;;;;;0.00;0.00;;;;;;;26.49;52.65;100071.06;5072304;28;20193;-73
2022/06/25 11:33:45;;;;;;;0.00;0.00;;;;;;;26.48;51.39;100071.50;5054280;28;20174;-73
2022/06/25 11:36:11;;;;;;;0.00;0.00;;;;;;;26.54;51.15;100058.56;5072404;28;20174;-73
2022/06/25 11:38:37;;;;;;;0.00;0.00;;;;;;;26.81;51.08;100064.03;5072256;28;20292;-73
2022/06/25 11:41:02;;;;;;;0.00;0.00;;;;;;;27.09;51.66;100060.69;5072239;28;20239;-73